sensor_id;sensor_type;location;lat;lon;timestamp;temperature;humidity
32217;DHT22;18709;51.140;4.088;2022-12-04T00:01:25;5.40;86.10
32217;DHT22;18709;51.140;4.088;2022-12-04T00:03:53;5.30;86.00
32217;DHT22;18709;51.140;4.088;2022-12-04T00:06:20;5.30;85.80
32217;DHT22;18709;51.140;4.088;2022-12-04T00:08:46;5.30;85.90
32217;DHT22;18709;51.140;4.088;2022-12-04T00:11:14;5.30;85.80
32217;DHT22;18709;51.140;4.088;2022-12-04T00:13:40;5.30;85.90
32217;DHT22;18709;51.140;4.088;2022-12-04T00:16:10;5.30;85.80
32217;DHT22;18709;51.140;4.088;2022-12-04T00:18:37;5.40;85.60
32217;DHT22;18709;51.140;4.088;2022-12-04T00:21:04;5.30;85.70
32217;DHT22;18709;51.140;4.088;2022-12-04T00:23:30;5.30;86.00
32217;DHT22;18709;51.140;4.088;2022-12-04T00:26:00;5.20;85.90
32217;DHT22;18709;51.140;4.088;2022-12-04T00:28:26;5.20;85.90
32217;DHT22;18709;51.140;4.088;2022-12-04T00:30:51;5.20;85.80
32217;DHT22;18709;51.140;4.088;2022-12-04T00:33:17;5.10;86.00
32217;DHT22;18709;51.140;4.088;2022-12-04T00:35:43;5.10;85.80
32217;DHT22;18709;51.140;4.088;2022-12-04T00:38:09;5.00;85.90
32217;DHT22;18709;51.140;4.088;2022-12-04T00:40:35;5.00;86.20
32217;DHT22;18709;51.140;4.088;2022-12-04T00:43:00;4.90;86.50
32217;DHT22;18709;51.140;4.088;2022-12-04T00:45:26;4.80;86.20
32217;DHT22;18709;51.140;4.088;2022-12-04T00:47:52;4.80;86.40
32217;DHT22;18709;51.140;4.088;2022-12-04T00:50:17;4.70;86.90
32217;DHT22;18709;51.140;4.088;2022-12-04T00:52:43;4.70;87.10
32217;DHT22;18709;51.140;4.088;2022-12-04T00:55:09;4.60;87.50
32217;DHT22;18709;51.140;4.088;2022-12-04T00:57:35;4.50;87.90
32217;DHT22;18709;51.140;4.088;2022-12-04T01:00:01;4.40;87.90
32217;DHT22;18709;51.140;4.088;2022-12-04T01:02:29;4.40;88.40
32217;DHT22;18709;51.140;4.088;2022-12-04T01:04:55;4.30;88.50
32217;DHT22;18709;51.140;4.088;2022-12-04T01:07:21;4.40;88.40
32217;DHT22;18709;51.140;4.088;2022-12-04T01:09:47;4.40;88.20
32217;DHT22;18709;51.140;4.088;2022-12-04T01:12:13;4.40;87.90
32217;DHT22;18709;51.140;4.088;2022-12-04T01:14:39;4.30;88.60
32217;DHT22;18709;51.140;4.088;2022-12-04T01:17:04;4.20;88.60
32217;DHT22;18709;51.140;4.088;2022-12-04T01:19:30;4.20;88.60
32217;DHT22;18709;51.140;4.088;2022-12-04T01:21:56;4.20;88.30
32217;DHT22;18709;51.140;4.088;2022-12-04T01:24:22;4.20;88.20
32217;DHT22;18709;51.140;4.088;2022-12-04T01:26:47;4.10;88.80
32217;DHT22;18709;51.140;4.088;2022-12-04T01:29:13;4.10;88.80
32217;DHT22;18709;51.140;4.088;2022-12-04T01:31:39;4.10;89.20
32217;DHT22;18709;51.140;4.088;2022-12-04T01:34:05;4.00;89.00
32217;DHT22;18709;51.140;4.088;2022-12-04T01:36:30;4.10;89.00
32217;DHT22;18709;51.140;4.088;2022-12-04T01:38:56;4.00;89.20
32217;DHT22;18709;51.140;4.088;2022-12-04T01:41:26;4.00;89.20
32217;DHT22;18709;51.140;4.088;2022-12-04T01:44:22;4.10;89.00
32217;DHT22;18709;51.140;4.088;2022-12-04T01:46:51;4.10;89.00
32217;DHT22;18709;51.140;4.088;2022-12-04T01:49:32;4.10;89.10
32217;DHT22;18709;51.140;4.088;2022-12-04T01:52:10;4.10;88.90
32217;DHT22;18709;51.140;4.088;2022-12-04T01:54:47;4.10;89.80
32217;DHT22;18709;51.140;4.088;2022-12-04T01:57:19;4.00;89.70
32217;DHT22;18709;51.140;4.088;2022-12-04T01:59:49;4.00;89.70
32217;DHT22;18709;51.140;4.088;2022-12-04T02:02:23;4.00;89.80
32217;DHT22;18709;51.140;4.088;2022-12-04T02:04:49;4.00;89.80
32217;DHT22;18709;51.140;4.088;2022-12-04T02:07:15;4.00;89.60
32217;DHT22;18709;51.140;4.088;2022-12-04T02:09:42;4.00;89.50
32217;DHT22;18709;51.140;4.088;2022-12-04T02:14:57;4.00;89.70
32217;DHT22;18709;51.140;4.088;2022-12-04T02:21:04;4.00;89.70
32217;DHT22;18709;51.140;4.088;2022-12-04T02:28:38;4.00;89.20
32217;DHT22;18709;51.140;4.088;2022-12-04T02:31:15;4.00;89.50
32217;DHT22;18709;51.140;4.088;2022-12-04T02:33:49;3.90;89.70
32217;DHT22;18709;51.140;4.088;2022-12-04T02:36:26;3.90;89.90
32217;DHT22;18709;51.140;4.088;2022-12-04T02:41:41;3.80;90.20
32217;DHT22;18709;51.140;4.088;2022-12-04T02:44:27;3.70;90.40
32217;DHT22;18709;51.140;4.088;2022-12-04T02:47:01;3.80;90.30
32217;DHT22;18709;51.140;4.088;2022-12-04T02:50:09;3.70;90.30
32217;DHT22;18709;51.140;4.088;2022-12-04T02:52:37;3.80;90.10
32217;DHT22;18709;51.140;4.088;2022-12-04T02:55:08;3.80;90.10
32217;DHT22;18709;51.140;4.088;2022-12-04T02:57:39;3.80;90.20
32217;DHT22;18709;51.140;4.088;2022-12-04T03:00:07;3.80;90.30
32217;DHT22;18709;51.140;4.088;2022-12-04T03:02:58;3.80;90.30
32217;DHT22;18709;51.140;4.088;2022-12-04T03:05:37;3.70;90.40
32217;DHT22;18709;51.140;4.088;2022-12-04T03:08:07;3.70;90.60
32217;DHT22;18709;51.140;4.088;2022-12-04T03:10:43;3.70;90.40
32217;DHT22;18709;51.140;4.088;2022-12-04T03:13:12;3.80;90.30
32217;DHT22;18709;51.140;4.088;2022-12-04T03:15:46;3.80;90.20
32217;DHT22;18709;51.140;4.088;2022-12-04T03:18:19;3.80;90.30
32217;DHT22;18709;51.140;4.088;2022-12-04T03:20:49;3.80;90.40
32217;DHT22;18709;51.140;4.088;2022-12-04T03:23:21;3.70;90.30
32217;DHT22;18709;51.140;4.088;2022-12-04T03:26:03;3.70;90.40
32217;DHT22;18709;51.140;4.088;2022-12-04T03:28:59;3.70;90.60
32217;DHT22;18709;51.140;4.088;2022-12-04T03:31:44;3.70;90.40
32217;DHT22;18709;51.140;4.088;2022-12-04T03:34:16;3.70;90.30
32217;DHT22;18709;51.140;4.088;2022-12-04T03:36:56;3.80;90.40
32217;DHT22;18709;51.140;4.088;2022-12-04T03:39:34;3.70;90.30
32217;DHT22;18709;51.140;4.088;2022-12-04T03:42:23;3.80;90.40
32217;DHT22;18709;51.140;4.088;2022-12-04T03:45:03;3.70;90.40
32217;DHT22;18709;51.140;4.088;2022-12-04T03:47:39;3.70;90.50
32217;DHT22;18709;51.140;4.088;2022-12-04T03:53:07;3.70;90.50
32217;DHT22;18709;51.140;4.088;2022-12-04T03:58:32;3.50;91.00
32217;DHT22;18709;51.140;4.088;2022-12-04T04:01:00;3.50;91.20
32217;DHT22;18709;51.140;4.088;2022-12-04T04:03:32;3.50;91.20
32217;DHT22;18709;51.140;4.088;2022-12-04T04:06:10;3.50;91.40
32217;DHT22;18709;51.140;4.088;2022-12-04T04:08:39;3.50;91.50
32217;DHT22;18709;51.140;4.088;2022-12-04T04:13:58;3.60;91.20
32217;DHT22;18709;51.140;4.088;2022-12-04T04:16:47;3.60;91.30
32217;DHT22;18709;51.140;4.088;2022-12-04T04:19:34;3.70;91.10
32217;DHT22;18709;51.140;4.088;2022-12-04T04:22:21;3.80;91.10
32217;DHT22;18709;51.140;4.088;2022-12-04T04:25:16;3.90;90.90
32217;DHT22;18709;51.140;4.088;2022-12-04T04:27:53;3.90;90.80
32217;DHT22;18709;51.140;4.088;2022-12-04T04:30:20;3.90;90.80
32217;DHT22;18709;51.140;4.088;2022-12-04T04:33:10;3.90;90.70
32217;DHT22;18709;51.140;4.088;2022-12-04T04:38:57;3.80;91.00
32217;DHT22;18709;51.140;4.088;2022-12-04T04:41:13;3.90;90.90
32217;DHT22;18709;51.140;4.088;2022-12-04T04:46:37;4.00;90.70
32217;DHT22;18709;51.140;4.088;2022-12-04T04:49:06;4.10;90.60
32217;DHT22;18709;51.140;4.088;2022-12-04T04:51:33;4.20;90.50
32217;DHT22;18709;51.140;4.088;2022-12-04T04:54:03;4.10;90.60
32217;DHT22;18709;51.140;4.088;2022-12-04T04:56:30;4.00;90.70
32217;DHT22;18709;51.140;4.088;2022-12-04T04:58:56;4.10;90.50
32217;DHT22;18709;51.140;4.088;2022-12-04T05:01:24;4.10;90.50
32217;DHT22;18709;51.140;4.088;2022-12-04T05:03:51;4.10;90.50
32217;DHT22;18709;51.140;4.088;2022-12-04T05:06:17;4.20;90.40
32217;DHT22;18709;51.140;4.088;2022-12-04T05:08:43;4.30;90.30
32217;DHT22;18709;51.140;4.088;2022-12-04T05:11:13;4.30;90.20
32217;DHT22;18709;51.140;4.088;2022-12-04T05:13:40;4.30;90.30
32217;DHT22;18709;51.140;4.088;2022-12-04T05:16:09;4.20;90.20
32217;DHT22;18709;51.140;4.088;2022-12-04T05:18:36;4.30;90.20
32217;DHT22;18709;51.140;4.088;2022-12-04T05:21:11;4.30;90.10
32217;DHT22;18709;51.140;4.088;2022-12-04T05:23:42;4.40;90.00
32217;DHT22;18709;51.140;4.088;2022-12-04T05:26:08;4.40;90.00
32217;DHT22;18709;51.140;4.088;2022-12-04T05:28:34;4.20;90.10
32217;DHT22;18709;51.140;4.088;2022-12-04T05:31:01;4.20;90.20
32217;DHT22;18709;51.140;4.088;2022-12-04T05:33:29;4.30;90.20
32217;DHT22;18709;51.140;4.088;2022-12-04T05:35:59;4.20;90.20
32217;DHT22;18709;51.140;4.088;2022-12-04T05:38:25;4.30;90.20
32217;DHT22;18709;51.140;4.088;2022-12-04T05:40:51;4.30;90.10
32217;DHT22;18709;51.140;4.088;2022-12-04T05:43:17;4.30;90.20
32217;DHT22;18709;51.140;4.088;2022-12-04T05:45:42;4.10;90.40
32217;DHT22;18709;51.140;4.088;2022-12-04T05:48:08;4.10;90.50
32217;DHT22;18709;51.140;4.088;2022-12-04T05:50:34;4.10;90.40
32217;DHT22;18709;51.140;4.088;2022-12-04T05:53:00;4.20;90.40
32217;DHT22;18709;51.140;4.088;2022-12-04T05:55:26;4.30;90.30
32217;DHT22;18709;51.140;4.088;2022-12-04T05:57:52;4.20;90.30
32217;DHT22;18709;51.140;4.088;2022-12-04T06:00:18;4.20;90.30
32217;DHT22;18709;51.140;4.088;2022-12-04T06:02:44;4.30;90.20
32217;DHT22;18709;51.140;4.088;2022-12-04T06:05:10;4.20;90.10
32217;DHT22;18709;51.140;4.088;2022-12-04T06:07:35;4.20;90.20
32217;DHT22;18709;51.140;4.088;2022-12-04T06:10:01;4.20;90.30
32217;DHT22;18709;51.140;4.088;2022-12-04T06:12:29;4.20;90.20
32217;DHT22;18709;51.140;4.088;2022-12-04T06:14:55;4.10;90.30
32217;DHT22;18709;51.140;4.088;2022-12-04T06:17:20;4.10;90.40
32217;DHT22;18709;51.140;4.088;2022-12-04T06:19:46;4.20;90.30
32217;DHT22;18709;51.140;4.088;2022-12-04T06:22:12;4.20;90.10
32217;DHT22;18709;51.140;4.088;2022-12-04T06:24:38;4.10;90.30
32217;DHT22;18709;51.140;4.088;2022-12-04T06:27:04;4.00;90.40
32217;DHT22;18709;51.140;4.088;2022-12-04T06:29:30;4.10;90.50
32217;DHT22;18709;51.140;4.088;2022-12-04T06:31:56;4.10;90.40
32217;DHT22;18709;51.140;4.088;2022-12-04T06:34:22;4.10;90.30
32217;DHT22;18709;51.140;4.088;2022-12-04T06:36:48;4.10;90.30
32217;DHT22;18709;51.140;4.088;2022-12-04T06:39:13;4.10;90.30
32217;DHT22;18709;51.140;4.088;2022-12-04T06:41:39;4.10;90.30
32217;DHT22;18709;51.140;4.088;2022-12-04T06:44:05;4.10;90.30
32217;DHT22;18709;51.140;4.088;2022-12-04T06:46:32;4.20;90.10
32217;DHT22;18709;51.140;4.088;2022-12-04T06:48:59;4.20;90.30
32217;DHT22;18709;51.140;4.088;2022-12-04T06:51:29;4.20;90.20
32217;DHT22;18709;51.140;4.088;2022-12-04T06:53:56;4.30;90.00
32217;DHT22;18709;51.140;4.088;2022-12-04T06:56:25;4.20;90.10
32217;DHT22;18709;51.140;4.088;2022-12-04T06:58:53;4.30;90.10
32217;DHT22;18709;51.140;4.088;2022-12-04T07:01:22;4.40;89.90
32217;DHT22;18709;51.140;4.088;2022-12-04T07:03:48;4.40;89.60
32217;DHT22;18709;51.140;4.088;2022-12-04T07:08:42;4.50;89.40
32217;DHT22;18709;51.140;4.088;2022-12-04T07:11:09;4.50;89.40
32217;DHT22;18709;51.140;4.088;2022-12-04T07:13:36;4.50;89.40
32217;DHT22;18709;51.140;4.088;2022-12-04T07:16:03;4.50;89.40
32217;DHT22;18709;51.140;4.088;2022-12-04T07:18:30;4.40;89.80
32217;DHT22;18709;51.140;4.088;2022-12-04T07:20:57;4.30;89.90
32217;DHT22;18709;51.140;4.088;2022-12-04T07:23:23;4.10;90.10
32217;DHT22;18709;51.140;4.088;2022-12-04T07:25:49;4.10;90.40
32217;DHT22;18709;51.140;4.088;2022-12-04T07:28:15;4.20;90.30
32217;DHT22;18709;51.140;4.088;2022-12-04T07:30:41;4.20;90.20
32217;DHT22;18709;51.140;4.088;2022-12-04T07:33:07;4.20;90.20
32217;DHT22;18709;51.140;4.088;2022-12-04T07:35:32;4.20;90.20
32217;DHT22;18709;51.140;4.088;2022-12-04T07:37:58;4.30;90.10
32217;DHT22;18709;51.140;4.088;2022-12-04T07:40:24;4.40;90.00
32217;DHT22;18709;51.140;4.088;2022-12-04T07:42:49;4.30;89.80
32217;DHT22;18709;51.140;4.088;2022-12-04T07:45:15;4.20;90.50
32217;DHT22;18709;51.140;4.088;2022-12-04T07:47:41;4.20;90.20
32217;DHT22;18709;51.140;4.088;2022-12-04T07:50:07;4.20;90.20
32217;DHT22;18709;51.140;4.088;2022-12-04T07:52:37;4.20;90.20
32217;DHT22;18709;51.140;4.088;2022-12-04T07:55:04;4.30;90.20
32217;DHT22;18709;51.140;4.088;2022-12-04T07:57:30;4.30;90.40
32217;DHT22;18709;51.140;4.088;2022-12-04T07:59:56;4.20;90.20
32217;DHT22;18709;51.140;4.088;2022-12-04T08:42:33;4.80;88.30
32217;DHT22;18709;51.140;4.088;2022-12-04T08:44:59;5.00;88.20
32217;DHT22;18709;51.140;4.088;2022-12-04T08:47:24;5.00;87.80
32217;DHT22;18709;51.140;4.088;2022-12-04T08:49:52;5.10;87.50
32217;DHT22;18709;51.140;4.088;2022-12-04T08:52:18;5.10;87.40
32217;DHT22;18709;51.140;4.088;2022-12-04T08:54:43;5.10;87.50
32217;DHT22;18709;51.140;4.088;2022-12-04T08:57:09;5.10;87.50
32217;DHT22;18709;51.140;4.088;2022-12-04T08:59:34;5.10;87.60
32217;DHT22;18709;51.140;4.088;2022-12-04T09:02:00;5.10;87.40
32217;DHT22;18709;51.140;4.088;2022-12-04T09:04:26;5.10;87.50
32217;DHT22;18709;51.140;4.088;2022-12-04T09:06:51;5.10;87.50
32217;DHT22;18709;51.140;4.088;2022-12-04T09:09:17;5.10;87.70
32217;DHT22;18709;51.140;4.088;2022-12-04T09:11:44;5.10;88.10
32217;DHT22;18709;51.140;4.088;2022-12-04T09:14:10;5.10;87.50
32217;DHT22;18709;51.140;4.088;2022-12-04T09:16:36;5.10;87.20
32217;DHT22;18709;51.140;4.088;2022-12-04T09:19:01;5.10;87.50
32217;DHT22;18709;51.140;4.088;2022-12-04T09:21:27;5.20;87.50
32217;DHT22;18709;51.140;4.088;2022-12-04T09:23:53;5.20;87.40
32217;DHT22;18709;51.140;4.088;2022-12-04T09:26:27;5.20;87.20
32217;DHT22;18709;51.140;4.088;2022-12-04T09:28:54;5.20;87.30
32217;DHT22;18709;51.140;4.088;2022-12-04T09:31:21;5.20;87.30
32217;DHT22;18709;51.140;4.088;2022-12-04T09:33:47;5.30;87.30
32217;DHT22;18709;51.140;4.088;2022-12-04T09:36:13;5.30;86.90
32217;DHT22;18709;51.140;4.088;2022-12-04T09:38:44;5.30;86.80
32217;DHT22;18709;51.140;4.088;2022-12-04T09:44:08;5.30;87.30
32217;DHT22;18709;51.140;4.088;2022-12-04T09:46:53;5.20;87.10
32217;DHT22;18709;51.140;4.088;2022-12-04T09:49:41;5.20;87.50
32217;DHT22;18709;51.140;4.088;2022-12-04T09:52:24;5.20;87.30
32217;DHT22;18709;51.140;4.088;2022-12-04T09:54:56;5.20;87.50
32217;DHT22;18709;51.140;4.088;2022-12-04T09:57:30;5.40;87.00
32217;DHT22;18709;51.140;4.088;2022-12-04T09:59:59;5.40;86.60
32217;DHT22;18709;51.140;4.088;2022-12-04T10:02:38;5.40;86.70
32217;DHT22;18709;51.140;4.088;2022-12-04T10:05:05;5.30;86.80
32217;DHT22;18709;51.140;4.088;2022-12-04T10:10:41;5.30;86.80
32217;DHT22;18709;51.140;4.088;2022-12-04T10:16:32;5.50;86.20
32217;DHT22;18709;51.140;4.088;2022-12-04T10:19:36;5.60;86.10
32217;DHT22;18709;51.140;4.088;2022-12-04T10:22:15;5.70;85.90
32217;DHT22;18709;51.140;4.088;2022-12-04T10:24:59;5.70;85.70
32217;DHT22;18709;51.140;4.088;2022-12-04T10:27:38;5.70;85.60
32217;DHT22;18709;51.140;4.088;2022-12-04T10:30:23;5.60;86.10
32217;DHT22;18709;51.140;4.088;2022-12-04T10:33:10;5.70;85.40
32217;DHT22;18709;51.140;4.088;2022-12-04T10:35:41;5.70;85.40
32217;DHT22;18709;51.140;4.088;2022-12-04T10:38:39;5.60;85.30
32217;DHT22;18709;51.140;4.088;2022-12-04T10:43:46;5.60;85.20
32217;DHT22;18709;51.140;4.088;2022-12-04T10:46:23;5.70;85.20
32217;DHT22;18709;51.140;4.088;2022-12-04T10:48:54;5.70;84.70
32217;DHT22;18709;51.140;4.088;2022-12-04T10:51:22;5.70;84.70
32217;DHT22;18709;51.140;4.088;2022-12-04T10:53:49;5.80;84.80
32217;DHT22;18709;51.140;4.088;2022-12-04T10:56:20;5.80;84.40
32217;DHT22;18709;51.140;4.088;2022-12-04T10:59:04;5.80;84.10
32217;DHT22;18709;51.140;4.088;2022-12-04T11:01:32;5.90;83.80
32217;DHT22;18709;51.140;4.088;2022-12-04T11:04:08;5.90;83.40
32217;DHT22;18709;51.140;4.088;2022-12-04T11:06:34;5.90;83.40
32217;DHT22;18709;51.140;4.088;2022-12-04T11:09:01;6.00;83.30
32217;DHT22;18709;51.140;4.088;2022-12-04T11:11:30;6.00;83.20
32217;DHT22;18709;51.140;4.088;2022-12-04T11:14:16;6.00;83.00
32217;DHT22;18709;51.140;4.088;2022-12-04T11:16:45;5.80;82.70
32217;DHT22;18709;51.140;4.088;2022-12-04T11:19:27;5.80;82.90
32217;DHT22;18709;51.140;4.088;2022-12-04T11:22:17;5.70;83.30
32217;DHT22;18709;51.140;4.088;2022-12-04T11:24:52;5.60;82.90
32217;DHT22;18709;51.140;4.088;2022-12-04T11:27:22;5.40;83.60
32217;DHT22;18709;51.140;4.088;2022-12-04T11:29:50;5.40;84.00
32217;DHT22;18709;51.140;4.088;2022-12-04T11:32:24;5.40;83.90
32217;DHT22;18709;51.140;4.088;2022-12-04T11:34:52;5.50;83.70
32217;DHT22;18709;51.140;4.088;2022-12-04T11:37:29;5.60;83.50
32217;DHT22;18709;51.140;4.088;2022-12-04T11:39:56;5.50;84.00
32217;DHT22;18709;51.140;4.088;2022-12-04T11:42:27;5.50;83.80
32217;DHT22;18709;51.140;4.088;2022-12-04T11:45:00;5.50;83.90
32217;DHT22;18709;51.140;4.088;2022-12-04T11:47:29;5.50;83.80
32217;DHT22;18709;51.140;4.088;2022-12-04T11:50:02;5.50;83.50
32217;DHT22;18709;51.140;4.088;2022-12-04T11:58:51;5.50;82.30
32217;DHT22;18709;51.140;4.088;2022-12-04T12:10:16;5.40;82.80
32217;DHT22;18709;51.140;4.088;2022-12-04T12:15:51;5.80;82.10
32217;DHT22;18709;51.140;4.088;2022-12-04T12:21:23;5.70;81.70
32217;DHT22;18709;51.140;4.088;2022-12-04T12:26:47;5.70;81.90
32217;DHT22;18709;51.140;4.088;2022-12-04T12:29:49;5.70;82.00
32217;DHT22;18709;51.140;4.088;2022-12-04T12:32:29;5.60;82.10
32217;DHT22;18709;51.140;4.088;2022-12-04T12:34:57;5.70;82.30
32217;DHT22;18709;51.140;4.088;2022-12-04T12:37:40;5.60;82.50
32217;DHT22;18709;51.140;4.088;2022-12-04T12:40:20;5.70;82.50
32217;DHT22;18709;51.140;4.088;2022-12-04T12:42:56;5.80;82.60
32217;DHT22;18709;51.140;4.088;2022-12-04T12:53:37;5.70;82.90
32217;DHT22;18709;51.140;4.088;2022-12-04T12:56:03;5.70;82.90
32217;DHT22;18709;51.140;4.088;2022-12-04T12:58:49;5.50;83.10
32217;DHT22;18709;51.140;4.088;2022-12-04T13:01:56;5.50;83.20
32217;DHT22;18709;51.140;4.088;2022-12-04T13:04:37;5.40;83.10
32217;DHT22;18709;51.140;4.088;2022-12-04T13:09:43;5.40;83.10
32217;DHT22;18709;51.140;4.088;2022-12-04T13:12:14;5.40;83.20
32217;DHT22;18709;51.140;4.088;2022-12-04T13:14:39;5.30;83.20
32217;DHT22;18709;51.140;4.088;2022-12-04T13:19:55;5.20;83.40
32217;DHT22;18709;51.140;4.088;2022-12-04T13:22:25;5.30;83.10
32217;DHT22;18709;51.140;4.088;2022-12-04T13:25:08;5.50;82.80
32217;DHT22;18709;51.140;4.088;2022-12-04T13:30:53;5.60;82.30
32217;DHT22;18709;51.140;4.088;2022-12-04T13:34:26;5.50;82.40
32217;DHT22;18709;51.140;4.088;2022-12-04T13:42:04;5.50;82.30
32217;DHT22;18709;51.140;4.088;2022-12-04T13:44:31;5.40;82.80
32217;DHT22;18709;51.140;4.088;2022-12-04T13:47:07;5.30;83.10
32217;DHT22;18709;51.140;4.088;2022-12-04T13:49:35;5.40;83.00
32217;DHT22;18709;51.140;4.088;2022-12-04T13:52:03;5.40;82.70
32217;DHT22;18709;51.140;4.088;2022-12-04T13:54:30;5.20;83.50
32217;DHT22;18709;51.140;4.088;2022-12-04T13:57:19;5.00;84.20
32217;DHT22;18709;51.140;4.088;2022-12-04T13:59:45;4.90;84.70
32217;DHT22;18709;51.140;4.088;2022-12-04T14:02:34;4.70;85.50
32217;DHT22;18709;51.140;4.088;2022-12-04T14:05:04;4.70;85.80
32217;DHT22;18709;51.140;4.088;2022-12-04T14:07:32;4.70;86.40
32217;DHT22;18709;51.140;4.088;2022-12-04T14:10:01;4.60;86.40
32217;DHT22;18709;51.140;4.088;2022-12-04T14:12:32;4.50;87.10
32217;DHT22;18709;51.140;4.088;2022-12-04T14:15:02;4.50;87.60
32217;DHT22;18709;51.140;4.088;2022-12-04T14:17:31;4.30;87.40
32217;DHT22;18709;51.140;4.088;2022-12-04T14:20:03;4.20;88.00
32217;DHT22;18709;51.140;4.088;2022-12-04T14:25:19;4.20;88.60
32217;DHT22;18709;51.140;4.088;2022-12-04T14:27:48;4.20;88.50
32217;DHT22;18709;51.140;4.088;2022-12-04T14:30:21;4.20;88.80
32217;DHT22;18709;51.140;4.088;2022-12-04T14:33:08;4.10;89.00
32217;DHT22;18709;51.140;4.088;2022-12-04T14:35:47;4.30;88.90
32217;DHT22;18709;51.140;4.088;2022-12-04T14:38:20;4.30;88.80
32217;DHT22;18709;51.140;4.088;2022-12-04T14:40:49;4.20;88.90
32217;DHT22;18709;51.140;4.088;2022-12-04T14:43:19;4.20;89.30
32217;DHT22;18709;51.140;4.088;2022-12-04T14:51:29;4.00;89.30
32217;DHT22;18709;51.140;4.088;2022-12-04T14:59:22;4.00;90.00
32217;DHT22;18709;51.140;4.088;2022-12-04T15:01:51;4.10;89.70
32217;DHT22;18709;51.140;4.088;2022-12-04T15:06:50;4.00;89.80
32217;DHT22;18709;51.140;4.088;2022-12-04T15:09:20;4.00;90.00
32217;DHT22;18709;51.140;4.088;2022-12-04T15:15:18;4.00;90.00
32217;DHT22;18709;51.140;4.088;2022-12-04T15:20:57;4.10;90.00
32217;DHT22;18709;51.140;4.088;2022-12-04T15:25:51;4.10;90.00
32217;DHT22;18709;51.140;4.088;2022-12-04T15:30:57;4.30;89.60
32217;DHT22;18709;51.140;4.088;2022-12-04T15:33:28;4.30;89.50
32217;DHT22;18709;51.140;4.088;2022-12-04T15:38:30;4.30;89.30
32217;DHT22;18709;51.140;4.088;2022-12-04T15:40:58;4.30;89.30
32217;DHT22;18709;51.140;4.088;2022-12-04T15:43:37;4.20;89.70
32217;DHT22;18709;51.140;4.088;2022-12-04T15:46:13;4.20;89.60
32217;DHT22;18709;51.140;4.088;2022-12-04T15:48:39;4.20;89.60
32217;DHT22;18709;51.140;4.088;2022-12-04T15:51:06;4.20;89.90
32217;DHT22;18709;51.140;4.088;2022-12-04T15:53:36;4.10;90.00
32217;DHT22;18709;51.140;4.088;2022-12-04T15:56:07;4.00;90.20
32217;DHT22;18709;51.140;4.088;2022-12-04T15:58:40;4.00;90.00
32217;DHT22;18709;51.140;4.088;2022-12-04T16:01:12;4.00;90.10
32217;DHT22;18709;51.140;4.088;2022-12-04T16:03:47;4.00;90.10
32217;DHT22;18709;51.140;4.088;2022-12-04T16:06:25;4.00;90.30
32217;DHT22;18709;51.140;4.088;2022-12-04T16:08:59;4.00;90.40
32217;DHT22;18709;51.140;4.088;2022-12-04T16:11:35;4.00;90.30
32217;DHT22;18709;51.140;4.088;2022-12-04T16:14:14;3.90;90.50
32217;DHT22;18709;51.140;4.088;2022-12-04T16:16:51;4.00;90.30
32217;DHT22;18709;51.140;4.088;2022-12-04T16:19:27;4.10;90.30
32217;DHT22;18709;51.140;4.088;2022-12-04T16:21:53;4.10;90.20
32217;DHT22;18709;51.140;4.088;2022-12-04T16:24:19;4.20;90.40
32217;DHT22;18709;51.140;4.088;2022-12-04T16:26:51;4.20;90.10
32217;DHT22;18709;51.140;4.088;2022-12-04T16:29:17;4.30;90.00
32217;DHT22;18709;51.140;4.088;2022-12-04T16:31:43;4.30;89.70
32217;DHT22;18709;51.140;4.088;2022-12-04T16:34:11;4.30;90.00
32217;DHT22;18709;51.140;4.088;2022-12-04T16:36:37;4.40;89.70
32217;DHT22;18709;51.140;4.088;2022-12-04T16:39:03;4.60;89.10
32217;DHT22;18709;51.140;4.088;2022-12-04T16:41:28;4.80;88.40
32217;DHT22;18709;51.140;4.088;2022-12-04T16:43:57;4.80;87.90
32217;DHT22;18709;51.140;4.088;2022-12-04T16:46:25;4.80;87.70
32217;DHT22;18709;51.140;4.088;2022-12-04T16:48:51;4.90;87.50
32217;DHT22;18709;51.140;4.088;2022-12-04T16:51:25;4.80;87.50
32217;DHT22;18709;51.140;4.088;2022-12-04T16:53:52;4.80;87.40
32217;DHT22;18709;51.140;4.088;2022-12-04T16:56:18;4.80;87.60
32217;DHT22;18709;51.140;4.088;2022-12-04T16:58:44;4.80;87.30
32217;DHT22;18709;51.140;4.088;2022-12-04T17:03:43;4.70;87.40
32217;DHT22;18709;51.140;4.088;2022-12-04T17:06:08;4.70;87.80
32217;DHT22;18709;51.140;4.088;2022-12-04T17:08:34;4.80;87.90
32217;DHT22;18709;51.140;4.088;2022-12-04T17:10:59;4.80;87.30
32217;DHT22;18709;51.140;4.088;2022-12-04T17:13:25;4.80;87.60
32217;DHT22;18709;51.140;4.088;2022-12-04T17:15:51;4.90;87.70
32217;DHT22;18709;51.140;4.088;2022-12-04T17:18:16;4.80;87.60
32217;DHT22;18709;51.140;4.088;2022-12-04T17:20:43;4.90;87.20
32217;DHT22;18709;51.140;4.088;2022-12-04T17:23:10;5.00;87.30
32217;DHT22;18709;51.140;4.088;2022-12-04T17:25:36;4.90;87.40
32217;DHT22;18709;51.140;4.088;2022-12-04T17:28:01;4.90;87.20
32217;DHT22;18709;51.140;4.088;2022-12-04T17:30:27;4.90;87.40
32217;DHT22;18709;51.140;4.088;2022-12-04T17:32:53;4.90;87.00
32217;DHT22;18709;51.140;4.088;2022-12-04T17:35:18;5.00;87.00
32217;DHT22;18709;51.140;4.088;2022-12-04T17:37:44;5.00;86.90
32217;DHT22;18709;51.140;4.088;2022-12-04T17:40:11;5.10;86.70
32217;DHT22;18709;51.140;4.088;2022-12-04T17:42:39;5.00;86.70
32217;DHT22;18709;51.140;4.088;2022-12-04T17:45:05;5.10;86.50
32217;DHT22;18709;51.140;4.088;2022-12-04T17:47:33;5.10;86.70
32217;DHT22;18709;51.140;4.088;2022-12-04T17:49:59;5.00;86.60
32217;DHT22;18709;51.140;4.088;2022-12-04T17:52:24;5.00;87.00
32217;DHT22;18709;51.140;4.088;2022-12-04T17:54:50;4.90;87.10
32217;DHT22;18709;51.140;4.088;2022-12-04T17:57:17;4.80;87.10
32217;DHT22;18709;51.140;4.088;2022-12-04T17:59:43;5.00;86.90
32217;DHT22;18709;51.140;4.088;2022-12-04T18:02:09;5.10;87.00
32217;DHT22;18709;51.140;4.088;2022-12-04T18:04:35;5.10;87.00
32217;DHT22;18709;51.140;4.088;2022-12-04T18:07:01;5.10;86.90
32217;DHT22;18709;51.140;4.088;2022-12-04T18:09:27;5.00;87.60
32217;DHT22;18709;51.140;4.088;2022-12-04T18:11:52;4.90;87.20
32217;DHT22;18709;51.140;4.088;2022-12-04T18:14:20;5.00;87.30
32217;DHT22;18709;51.140;4.088;2022-12-04T18:16:51;5.10;87.40
32217;DHT22;18709;51.140;4.088;2022-12-04T18:19:19;5.20;87.00
32217;DHT22;18709;51.140;4.088;2022-12-04T18:21:45;5.20;86.50
32217;DHT22;18709;51.140;4.088;2022-12-04T18:24:11;5.30;86.40
32217;DHT22;18709;51.140;4.088;2022-12-04T18:26:40;5.30;86.50
32217;DHT22;18709;51.140;4.088;2022-12-04T18:29:07;5.40;86.60
32217;DHT22;18709;51.140;4.088;2022-12-04T18:31:33;5.40;86.40
32217;DHT22;18709;51.140;4.088;2022-12-04T18:33:59;5.50;86.30
32217;DHT22;18709;51.140;4.088;2022-12-04T18:36:29;5.50;86.00
32217;DHT22;18709;51.140;4.088;2022-12-04T18:38:57;5.60;85.90
32217;DHT22;18709;51.140;4.088;2022-12-04T18:41:23;5.60;85.40
32217;DHT22;18709;51.140;4.088;2022-12-04T18:43:50;5.60;85.30
32217;DHT22;18709;51.140;4.088;2022-12-04T18:46:17;5.50;86.20
32217;DHT22;18709;51.140;4.088;2022-12-04T18:48:43;5.40;86.20